Time;durP1;ratioP1;P1;durP2;ratioP2;P2;SDS_P1;SDS_P2;PMS_P1;PMS_P2;Temp;Humidity;BMP_temperature;BMP_pressure;BME280_temperature;BME280_humidity;BME280_pressure;Samples;Min_cycle;Max_cycle;Signal;HPM_P1;HPM_P2
2024/01/24 00:00:17;;;;;;;10.43;4.93;;;;;;;;;;5029134;28;20186;-79
2024/01/24 00:02:44;;;;;;;8.43;4.68;;;;;;;;;;5032563;28;20177;-78
2024/01/24 00:05:10;;;;;;;7.43;4.15;;;;;;;;;;5042170;28;20186;-76
2024/01/24 00:07:35;;;;;;;6.13;4.05;;;;;;;;;;5033420;28;20206;-78
2024/01/24 00:10:02;;;;;;;7.78;4.05;;;;;;;;;;5030501;28;20186;-77
2024/01/24 00:12:28;;;;;;;9.35;4.35;;;;;;;;;;5031160;28;20677;-77
2024/01/24 00:14:53;;;;;;;8.88;3.70;;;;;;;;;;5040009;28;20393;-77
2024/01/24 00:17:19;;;;;;;7.43;4.05;;;;;;;;;;5045170;28;20245;-76
2024/01/24 00:19:44;;;;;;;8.73;4.00;;;;;;;;;;5030713;28;20205;-77
2024/01/24 00:22:11;;;;;;;10.68;4.00;;;;;;;;;;5049525;28;20178;-76
2024/01/24 00:24:37;;;;;;;9.85;3.97;;;;;;;;;;5053671;28;20197;-77
2024/01/24 00:27:02;;;;;;;7.93;3.60;;;;;;;;;;5040028;28;20241;-75
2024/01/24 00:29:28;;;;;;;6.57;3.30;;;;;;;;;;5031917;28;20256;-78
2024/01/24 00:31:55;;;;;;;8.75;3.67;;;;;;;;;;5040221;28;20209;-78
2024/01/24 00:34:21;;;;;;;5.40;3.17;;;;;;;;;;5049634;28;20195;-77
2024/01/24 00:36:46;;;;;;;6.80;3.13;;;;;;;;;;5046790;28;20641;-75
2024/01/24 00:39:13;;;;;;;9.57;3.67;;;;;;;;;;5038266;28;20186;-76
2024/01/24 00:41:41;;;;;;;4.93;2.83;;;;;;;;;;5034899;28;20243;-78
2024/01/24 00:44:07;;;;;;;6.55;3.13;;;;;;;;;;5030569;28;20182;-75
2024/01/24 00:46:32;;;;;;;8.25;3.30;;;;;;;;;;5035606;28;20720;-77
2024/01/24 00:48:57;;;;;;;4.72;2.78;;;;;;;;;;5047072;28;20276;-77
2024/01/24 00:51:23;;;;;;;6.43;2.78;;;;;;;;;;5032557;28;20208;-75
2024/01/24 00:53:53;;;;;;;5.07;2.88;;;;;;;;;;5021980;28;20244;-76
2024/01/24 00:56:20;;;;;;;8.02;3.20;;;;;;;;;;5049264;28;20280;-77
2024/01/24 00:58:46;;;;;;;3.75;2.72;;;;;;;;;;5042108;28;20237;-77
2024/01/24 01:01:12;;;;;;;7.30;3.40;;;;;;;;;;5041355;28;20745;-76
2024/01/24 01:03:38;;;;;;;5.55;2.90;;;;;;;;;;5046806;28;20193;-78
2024/01/24 01:06:04;;;;;;;5.28;2.63;;;;;;;;;;5044520;28;20210;-77
2024/01/24 01:08:30;;;;;;;3.83;3.00;;;;;;;;;;5034478;28;20189;-78
2024/01/24 01:10:55;;;;;;;6.65;3.08;;;;;;;;;;5041479;28;20178;-76
2024/01/24 01:13:21;;;;;;;4.90;2.80;;;;;;;;;;5039182;28;20235;-77
2024/01/24 01:15:46;;;;;;;7.40;3.35;;;;;;;;;;5042981;28;20742;-76
2024/01/24 01:18:12;;;;;;;7.45;3.05;;;;;;;;;;5041723;28;20208;-77
2024/01/24 01:20:37;;;;;;;6.15;2.97;;;;;;;;;;5046359;28;20188;-78
2024/01/24 01:23:03;;;;;;;5.10;2.90;;;;;;;;;;5037862;28;20664;-79
2024/01/24 01:25:29;;;;;;;5.00;2.97;;;;;;;;;;5037148;28;20182;-77
2024/01/24 01:27:54;;;;;;;3.95;3.10;;;;;;;;;;5036232;28;20221;-78
2024/01/24 01:30:21;;;;;;;6.72;2.60;;;;;;;;;;5024261;28;20182;-78
2024/01/24 01:32:46;;;;;;;4.90;2.70;;;;;;;;;;5049723;28;20524;-78
2024/01/24 01:35:12;;;;;;;4.00;3.20;;;;;;;;;;5063568;28;20177;-78
2024/01/24 01:37:38;;;;;;;3.63;3.00;;;;;;;;;;5046219;28;20240;-78
2024/01/24 01:40:06;;;;;;;3.97;3.20;;;;;;;;;;5044447;28;20209;-78
2024/01/24 01:42:32;;;;;;;3.58;2.97;;;;;;;;;;5044462;28;20196;-76
2024/01/24 01:44:58;;;;;;;4.38;2.83;;;;;;;;;;5025859;28;20187;-80
2024/01/24 01:47:24;;;;;;;5.35;2.97;;;;;;;;;;5047566;28;20268;-78
2024/01/24 01:49:50;;;;;;;5.05;2.95;;;;;;;;;;5054769;28;20193;-79
2024/01/24 01:52:16;;;;;;;6.30;2.95;;;;;;;;;;5060862;28;20276;-77
2024/01/24 01:54:44;;;;;;;2.38;2.17;;;;;;;;;;5040105;28;20211;-79
2024/01/24 01:57:11;;;;;;;3.70;2.75;;;;;;;;;;5023558;28;20268;-80
2024/01/24 01:59:39;;;;;;;2.20;1.92;;;;;;;;;;5054730;28;20185;-78
2024/01/24 02:02:06;;;;;;;3.45;2.10;;;;;;;;;;5026647;28;20273;-79
2024/01/24 02:04:31;;;;;;;3.72;2.25;;;;;;;;;;5045354;28;20676;-78
2024/01/24 02:06:57;;;;;;;3.25;1.98;;;;;;;;;;5046102;28;20201;-77
2024/01/24 02:09:23;;;;;;;2.22;2.05;;;;;;;;;;5024867;28;20641;-78
2024/01/24 02:11:49;;;;;;;2.25;2.05;;;;;;;;;;5047651;28;20193;-77
2024/01/24 02:14:14;;;;;;;2.10;1.83;;;;;;;;;;5022641;28;20276;-78
2024/01/24 02:16:40;;;;;;;1.75;1.65;;;;;;;;;;5035768;28;20226;-77
2024/01/24 02:19:10;;;;;;;1.40;1.30;;;;;;;;;;5045207;28;20218;-79
2024/01/24 02:21:36;;;;;;;2.03;1.52;;;;;;;;;;5038754;28;20194;-79
2024/01/24 02:24:03;;;;;;;1.60;1.50;;;;;;;;;;5045466;28;20236;-79
2024/01/24 02:26:29;;;;;;;2.03;1.02;;;;;;;;;;5035300;28;20269;-76
2024/01/24 02:28:55;;;;;;;2.92;1.17;;;;;;;;;;5058845;28;20301;-80
2024/01/24 02:31:21;;;;;;;1.20;1.00;;;;;;;;;;5034716;28;20508;-79
2024/01/24 02:33:46;;;;;;;2.00;0.95;;;;;;;;;;5042932;28;20190;-78
2024/01/24 02:36:14;;;;;;;1.20;0.88;;;;;;;;;;5041620;28;20182;-79
2024/01/24 02:38:43;;;;;;;0.98;0.80;;;;;;;;;;5044553;28;20213;-79
2024/01/24 02:41:09;;;;;;;0.60;0.52;;;;;;;;;;5055846;28;20272;-80
2024/01/24 02:43:35;;;;;;;1.83;0.50;;;;;;;;;;5041912;28;20225;-80
2024/01/24 02:46:01;;;;;;;0.50;0.50;;;;;;;;;;5033597;28;20251;-79
2024/01/24 02:48:26;;;;;;;0.80;0.40;;;;;;;;;;5045581;28;20173;-78
2024/01/24 02:50:52;;;;;;;0.50;0.50;;;;;;;;;;5048264;28;20198;-79
2024/01/24 02:53:18;;;;;;;0.85;0.40;;;;;;;;;;5041401;28;20190;-78
2024/01/24 02:55:44;;;;;;;0.50;0.50;;;;;;;;;;5034309;28;20299;-77
2024/01/24 02:58:10;;;;;;;0.77;0.60;;;;;;;;;;5048003;28;20216;-77
2024/01/24 03:00:35;;;;;;;1.95;0.52;;;;;;;;;;5052260;28;20205;-76
2024/01/24 03:03:03;;;;;;;0.43;0.40;;;;;;;;;;5046900;28;20194;-78
2024/01/24 03:05:28;;;;;;;0.95;0.47;;;;;;;;;;5052155;28;20285;-79
2024/01/24 03:07:54;;;;;;;3.65;0.50;;;;;;;;;;5035242;28;20233;-78
2024/01/24 03:10:21;;;;;;;0.75;0.40;;;;;;;;;;5026635;28;20182;-77
2024/01/24 03:12:48;;;;;;;1.00;0.60;;;;;;;;;;5041908;28;20331;-79
2024/01/24 03:15:14;;;;;;;0.82;0.50;;;;;;;;;;5035641;28;20186;-79
2024/01/24 03:17:40;;;;;;;1.58;0.50;;;;;;;;;;5029842;28;20189;-79
2024/01/24 03:20:07;;;;;;;2.95;0.70;;;;;;;;;;5031096;28;20237;-77
2024/01/24 03:22:33;;;;;;;0.50;0.50;;;;;;;;;;5041817;28;20197;-77
2024/01/24 03:24:58;;;;;;;1.17;0.75;;;;;;;;;;5048599;28;20566;-76
2024/01/24 03:27:23;;;;;;;1.27;0.77;;;;;;;;;;5041406;28;20221;-78
2024/01/24 03:29:50;;;;;;;2.72;0.55;;;;;;;;;;5046913;28;20200;-77
2024/01/24 03:32:15;;;;;;;5.05;1.20;;;;;;;;;;5052914;28;20272;-77
2024/01/24 03:34:40;;;;;;;1.88;0.68;;;;;;;;;;5031970;28;20270;-78
2024/01/24 03:37:06;;;;;;;1.48;0.73;;;;;;;;;;5035641;28;20187;-77
2024/01/24 03:39:32;;;;;;;1.75;1.00;;;;;;;;;;5036525;28;20254;-78
2024/01/24 03:41:58;;;;;;;2.53;1.00;;;;;;;;;;5045763;28;20189;-78
2024/01/24 03:44:24;;;;;;;3.67;1.20;;;;;;;;;;5054470;28;20194;-76
2024/01/24 03:46:49;;;;;;;4.07;0.75;;;;;;;;;;5041403;28;20210;-77
2024/01/24 03:49:15;;;;;;;6.90;1.13;;;;;;;;;;5035075;28;20190;-76
2024/01/24 03:51:40;;;;;;;5.57;1.20;;;;;;;;;;5030363;28;20182;-76
2024/01/24 03:54:06;;;;;;;6.40;1.08;;;;;;;;;;5049430;28;20190;-77
2024/01/24 03:56:33;;;;;;;4.13;1.10;;;;;;;;;;5041877;28;20185;-77
2024/01/24 03:58:58;;;;;;;2.88;0.80;;;;;;;;;;5021450;28;20206;-76
2024/01/24 04:01:24;;;;;;;3.75;0.70;;;;;;;;;;5043780;28;20192;-76
2024/01/24 04:03:49;;;;;;;5.15;1.00;;;;;;;;;;5039795;28;20189;-77
2024/01/24 04:06:15;;;;;;;7.38;1.10;;;;;;;;;;5022438;28;20581;-77
2024/01/24 04:08:43;;;;;;;5.90;1.25;;;;;;;;;;5036748;28;20324;-78
2024/01/24 04:11:09;;;;;;;6.38;1.02;;;;;;;;;;5016782;28;20277;-77
2024/01/24 04:13:34;;;;;;;8.15;1.20;;;;;;;;;;5040524;28;20248;-76
2024/01/24 04:16:00;;;;;;;9.10;1.73;;;;;;;;;;5053190;28;20317;-76
2024/01/24 04:18:25;;;;;;;8.15;1.25;;;;;;;;;;5037193;28;20236;-75
2024/01/24 04:20:51;;;;;;;9.98;1.50;;;;;;;;;;5024292;28;20550;-77
2024/01/24 04:23:16;;;;;;;7.53;1.20;;;;;;;;;;5036144;28;20196;-76
2024/01/24 04:25:41;;;;;;;12.20;2.30;;;;;;;;;;5049518;28;20350;-75
2024/01/24 04:28:09;;;;;;;7.38;1.75;;;;;;;;;;5030832;28;20245;-76
2024/01/24 04:30:34;;;;;;;9.63;1.45;;;;;;;;;;5034049;28;20190;-76
2024/01/24 04:32:59;;;;;;;11.38;1.80;;;;;;;;;;5049753;28;20510;-77
2024/01/24 04:35:25;;;;;;;9.65;1.85;;;;;;;;;;5043510;28;20756;-76
2024/01/24 04:37:51;;;;;;;8.93;1.73;;;;;;;;;;5045339;28;20228;-78
2024/01/24 04:40:17;;;;;;;12.88;1.98;;;;;;;;;;5046144;28;20188;-77
2024/01/24 04:42:42;;;;;;;11.75;2.00;;;;;;;;;;5019449;28;20185;-77
2024/01/24 04:45:10;;;;;;;13.35;2.35;;;;;;;;;;5037379;28;20197;-78
2024/01/24 04:47:38;;;;;;;12.63;2.38;;;;;;;;;;5034549;28;20283;-75
2024/01/24 04:50:04;;;;;;;14.60;2.50;;;;;;;;;;5048152;28;20327;-76
2024/01/24 04:52:30;;;;;;;9.82;2.33;;;;;;;;;;5035800;28;20198;-77
2024/01/24 04:54:55;;;;;;;12.75;2.10;;;;;;;;;;5043795;28;20189;-76
2024/01/24 04:57:21;;;;;;;22.83;2.85;;;;;;;;;;5030218;28;20186;-77
2024/01/24 04:59:46;;;;;;;14.88;2.72;;;;;;;;;;5031425;28;20178;-75
2024/01/24 05:02:11;;;;;;;11.60;2.20;;;;;;;;;;5033765;28;20182;-75
2024/01/24 05:04:37;;;;;;;12.15;1.90;;;;;;;;;;5031099;28;20276;-76
2024/01/24 05:07:02;;;;;;;17.45;1.90;;;;;;;;;;5035637;28;20209;-76
2024/01/24 05:09:28;;;;;;;12.75;2.20;;;;;;;;;;5034083;28;20194;-76
2024/01/24 05:11:53;;;;;;;17.80;2.80;;;;;;;;;;5035881;28;20189;-77
2024/01/24 05:14:19;;;;;;;19.33;3.25;;;;;;;;;;5032367;28;20281;-76
2024/01/24 05:16:44;;;;;;;19.95;3.47;;;;;;;;;;5021631;28;20719;-76
2024/01/24 05:19:10;;;;;;;24.17;3.15;;;;;;;;;;5026478;28;20236;-76
2024/01/24 05:21:42;;;;;;;25.70;4.10;;;;;;;;;;5026109;28;20186;-76
2024/01/24 05:24:09;;;;;;;23.00;3.85;;;;;;;;;;5034426;28;20547;-76
2024/01/24 05:26:35;;;;;;;17.73;3.45;;;;;;;;;;5053605;28;20212;-76
2024/01/24 05:29:02;;;;;;;24.58;3.50;;;;;;;;;;5039911;28;20194;-76
2024/01/24 05:31:28;;;;;;;17.73;3.50;;;;;;;;;;5045834;28;20243;-77
2024/01/24 05:33:55;;;;;;;23.10;3.70;;;;;;;;;;5031362;28;20182;-76
2024/01/24 05:36:21;;;;;;;15.38;3.47;;;;;;;;;;5047421;28;20691;-76
2024/01/24 05:38:46;;;;;;;23.60;3.65;;;;;;;;;;5036595;28;20258;-76
2024/01/24 05:41:12;;;;;;;23.20;4.68;;;;;;;;;;5026368;28;20198;-75
2024/01/24 05:43:37;;;;;;;21.80;3.78;;;;;;;;;;5027438;28;20221;-78
2024/01/24 05:46:03;;;;;;;21.42;4.57;;;;;;;;;;5043354;28;20189;-76
2024/01/24 05:48:28;;;;;;;26.52;4.07;;;;;;;;;;5049708;28;20192;-76
2024/01/24 05:50:54;;;;;;;19.35;3.65;;;;;;;;;;5035649;28;20596;-76
2024/01/24 05:53:19;;;;;;;35.70;5.20;;;;;;;;;;5032503;28;20255;-75
2024/01/24 05:55:46;;;;;;;24.42;4.20;;;;;;;;;;5033043;28;20234;-75
2024/01/24 05:58:11;;;;;;;23.92;3.83;;;;;;;;;;5049741;28;20313;-75
2024/01/24 06:00:37;;;;;;;18.95;3.78;;;;;;;;;;5036602;28;20186;-77
2024/01/24 06:03:02;;;;;;;24.33;4.05;;;;;;;;;;5042098;28;20248;-76
2024/01/24 06:05:28;;;;;;;24.92;3.95;;;;;;;;;;5032678;28;20186;-76
2024/01/24 06:07:53;;;;;;;35.88;5.43;;;;;;;;;;5051563;28;20643;-75
2024/01/24 06:10:19;;;;;;;36.08;5.57;;;;;;;;;;5036995;28;20202;-74
2024/01/24 06:12:44;;;;;;;30.90;4.53;;;;;;;;;;5052008;28;20209;-75
2024/01/24 06:15:10;;;;;;;24.45;4.53;;;;;;;;;;5033693;28;20194;-76
2024/01/24 06:17:35;;;;;;;21.80;4.55;;;;;;;;;;5038193;28;20213;-75
2024/01/24 06:20:01;;;;;;;25.23;4.85;;;;;;;;;;5037931;28;20272;-75
2024/01/24 06:22:26;;;;;;;34.67;5.13;;;;;;;;;;5034205;28;20189;-75
2024/01/24 06:24:52;;;;;;;27.45;5.28;;;;;;;;;;5027052;28;20242;-75
2024/01/24 06:27:17;;;;;;;28.50;5.18;;;;;;;;;;5033171;28;20649;-74
2024/01/24 06:29:43;;;;;;;30.05;5.90;;;;;;;;;;5047566;28;21416;-74
2024/01/24 06:32:08;;;;;;;27.80;4.97;;;;;;;;;;5043537;28;20194;-75
2024/01/24 06:34:34;;;;;;;25.30;5.47;;;;;;;;;;5037782;28;20242;-75
2024/01/24 06:36:59;;;;;;;21.27;4.43;;;;;;;;;;5046969;28;20652;-74
2024/01/24 06:39:25;;;;;;;32.17;5.53;;;;;;;;;;5038022;28;20324;-74
2024/01/24 06:41:51;;;;;;;29.77;4.75;;;;;;;;;;5044487;28;20658;-74
2024/01/24 06:44:16;;;;;;;31.05;5.03;;;;;;;;;;5037855;28;20201;-74
2024/01/24 06:46:45;;;;;;;31.70;5.75;;;;;;;;;;5036644;28;20228;-75
2024/01/24 06:49:11;;;;;;;26.88;5.18;;;;;;;;;;5047442;28;20189;-76
2024/01/24 06:51:40;;;;;;;38.00;5.72;;;;;;;;;;5042956;28;20194;-74
2024/01/24 06:54:06;;;;;;;35.08;5.82;;;;;;;;;;5040801;28;20196;-75
2024/01/24 06:56:32;;;;;;;28.13;5.38;;;;;;;;;;5038275;28;20182;-75
2024/01/24 06:58:58;;;;;;;39.17;5.65;;;;;;;;;;5033292;28;20556;-74
2024/01/24 07:01:23;;;;;;;25.75;4.70;;;;;;;;;;5047918;28;20186;-74
2024/01/24 07:03:48;;;;;;;36.30;6.45;;;;;;;;;;5047003;28;20665;-74
2024/01/24 07:06:14;;;;;;;36.88;6.13;;;;;;;;;;5040744;28;20239;-74
2024/01/24 07:08:40;;;;;;;30.77;5.28;;;;;;;;;;5044370;28;20219;-75
2024/01/24 07:11:06;;;;;;;41.13;6.28;;;;;;;;;;5037409;28;20279;-75
2024/01/24 07:13:32;;;;;;;41.13;6.05;;;;;;;;;;5017659;28;20215;-75
2024/01/24 07:16:00;;;;;;;29.92;5.82;;;;;;;;;;5039878;28;20291;-75
2024/01/24 07:18:26;;;;;;;40.20;7.13;;;;;;;;;;5043315;28;20344;-75
2024/01/24 07:20:51;;;;;;;26.13;5.97;;;;;;;;;;5039046;28;20177;-75
2024/01/24 07:23:17;;;;;;;40.00;5.57;;;;;;;;;;5049096;28;20195;-75
2024/01/24 07:25:42;;;;;;;30.52;5.30;;;;;;;;;;5042377;28;20863;-75
2024/01/24 07:28:08;;;;;;;43.03;5.95;;;;;;;;;;5024347;28;20227;-75
2024/01/24 07:30:33;;;;;;;33.03;5.88;;;;;;;;;;5032959;28;20696;-75
2024/01/24 07:32:59;;;;;;;30.27;6.10;;;;;;;;;;5054420;28;20205;-75
2024/01/24 07:35:25;;;;;;;42.13;7.35;;;;;;;;;;5046892;28;20195;-75
2024/01/24 07:37:51;;;;;;;36.15;5.60;;;;;;;;;;5043716;28;20262;-76
2024/01/24 07:40:16;;;;;;;36.03;6.47;;;;;;;;;;5032311;28;20661;-74
2024/01/24 07:42:42;;;;;;;45.75;6.40;;;;;;;;;;5035127;28;20573;-75
2024/01/24 07:45:09;;;;;;;32.85;5.80;;;;;;;;;;5035027;28;20215;-76
2024/01/24 07:47:34;;;;;;;34.15;6.18;;;;;;;;;;5043778;28;20222;-76
2024/01/24 07:50:00;;;;;;;37.38;6.35;;;;;;;;;;5048669;28;20215;-76
2024/01/24 07:52:25;;;;;;;31.08;6.13;;;;;;;;;;5042503;28;20657;-75
2024/01/24 07:54:51;;;;;;;28.77;5.30;;;;;;;;;;5045919;28;20561;-75
2024/01/24 07:57:16;;;;;;;34.72;5.72;;;;;;;;;;5042450;28;20182;-75
2024/01/24 07:59:41;;;;;;;34.65;5.30;;;;;;;;;;5040005;28;20654;-75
2024/01/24 08:02:07;;;;;;;39.50;5.65;;;;;;;;;;5043447;28;20610;-75
2024/01/24 08:04:32;;;;;;;28.75;5.65;;;;;;;;;;5042257;28;20474;-75
2024/01/24 08:06:58;;;;;;;36.88;5.95;;;;;;;;;;5043217;28;20823;-75
2024/01/24 08:09:23;;;;;;;44.20;6.03;;;;;;;;;;5038037;28;20336;-76
2024/01/24 08:11:49;;;;;;;30.48;5.85;;;;;;;;;;5031518;28;20190;-75
2024/01/24 08:14:14;;;;;;;28.70;5.65;;;;;;;;;;5041730;28;20213;-75
2024/01/24 08:16:55;;;;;;;37.38;6.78;;;;;;;;;;5040274;28;20251;-74
2024/01/24 08:19:20;;;;;;;45.63;6.75;;;;;;;;;;5030437;28;20197;-75
2024/01/24 08:21:45;;;;;;;33.72;6.63;;;;;;;;;;5040484;28;20193;-75
2024/01/24 08:24:11;;;;;;;36.78;6.90;;;;;;;;;;5035635;28;20246;-73
2024/01/24 08:26:36;;;;;;;36.28;5.20;;;;;;;;;;5043299;28;20769;-75
2024/01/24 08:29:02;;;;;;;39.97;6.50;;;;;;;;;;5033007;28;20697;-75
2024/01/24 08:31:27;;;;;;;35.60;6.05;;;;;;;;;;5039173;28;20478;-75
2024/01/24 08:33:53;;;;;;;37.45;6.25;;;;;;;;;;5040742;28;20189;-75
2024/01/24 08:36:18;;;;;;;42.30;6.25;;;;;;;;;;5032059;28;20192;-75
2024/01/24 08:38:44;;;;;;;44.47;6.68;;;;;;;;;;5029050;28;20721;-74
2024/01/24 08:41:10;;;;;;;32.72;6.28;;;;;;;;;;5042247;28;20193;-74
2024/01/24 08:43:35;;;;;;;41.65;5.68;;;;;;;;;;5030219;28;20181;-75
2024/01/24 08:46:01;;;;;;;34.47;6.13;;;;;;;;;;5046494;28;20555;-75
2024/01/24 08:48:28;;;;;;;39.88;6.18;;;;;;;;;;5046383;28;20724;-75
2024/01/24 08:50:53;;;;;;;39.03;6.53;;;;;;;;;;5042921;28;20193;-74
2024/01/24 08:53:19;;;;;;;34.22;6.70;;;;;;;;;;5045621;28;20305;-75
2024/01/24 08:55:44;;;;;;;43.15;6.85;;;;;;;;;;5039932;28;20187;-75
2024/01/24 08:58:10;;;;;;;30.85;5.65;;;;;;;;;;5044835;28;20186;-75
2024/01/24 09:00:35;;;;;;;34.65;6.22;;;;;;;;;;5049096;28;20400;-74
2024/01/24 09:03:00;;;;;;;33.25;6.00;;;;;;;;;;5043575;28;20677;-75
2024/01/24 09:05:26;;;;;;;33.88;5.97;;;;;;;;;;5018780;28;20190;-75
2024/01/24 09:07:51;;;;;;;32.95;5.18;;;;;;;;;;5044410;28;20245;-74
2024/01/24 09:10:17;;;;;;;31.35;5.55;;;;;;;;;;5045650;28;20201;-75
2024/01/24 09:12:42;;;;;;;34.25;6.15;;;;;;;;;;5037549;28;20668;-74
2024/01/24 09:15:08;;;;;;;35.03;5.38;;;;;;;;;;5046595;28;20548;-74
2024/01/24 09:17:35;;;;;;;37.10;6.25;;;;;;;;;;5044888;28;20300;-75
2024/01/24 09:20:02;;;;;;;35.35;6.18;;;;;;;;;;5026672;28;20665;-76
2024/01/24 09:22:27;;;;;;;36.33;5.85;;;;;;;;;;5024539;28;20185;-74
2024/01/24 09:24:53;;;;;;;31.63;5.50;;;;;;;;;;5046029;28;20189;-73
2024/01/24 09:27:18;;;;;;;31.90;5.63;;;;;;;;;;5031297;28;20221;-74
2024/01/24 09:29:44;;;;;;;33.00;5.03;;;;;;;;;;5040569;28;20193;-75
2024/01/24 09:32:09;;;;;;;32.15;5.55;;;;;;;;;;5031525;28;20628;-73
2024/01/24 09:34:34;;;;;;;30.10;5.93;;;;;;;;;;5027801;28;20216;-74
2024/01/24 09:37:01;;;;;;;30.48;5.05;;;;;;;;;;5034620;28;20182;-74
2024/01/24 09:39:26;;;;;;;32.47;5.20;;;;;;;;;;5033465;28;20189;-75
2024/01/24 09:41:52;;;;;;;37.83;5.53;;;;;;;;;;5038205;28;20193;-75
2024/01/24 09:44:18;;;;;;;31.42;5.18;;;;;;;;;;5032630;28;20212;-75
2024/01/24 09:46:43;;;;;;;30.92;5.53;;;;;;;;;;5031811;28;20220;-75
2024/01/24 09:49:14;;;;;;;32.03;5.20;;;;;;;;;;5033887;28;20692;-74
2024/01/24 09:51:40;;;;;;;27.70;5.55;;;;;;;;;;5027929;28;20186;-75
2024/01/24 09:54:07;;;;;;;36.05;5.45;;;;;;;;;;5042494;28;20273;-74
2024/01/24 09:56:37;;;;;;;25.15;4.82;;;;;;;;;;5027194;28;20182;-75
2024/01/24 09:59:07;;;;;;;26.83;4.82;;;;;;;;;;5013295;28;20193;-75
2024/01/24 10:01:38;;;;;;;29.63;6.10;;;;;;;;;;5034691;28;20221;-74
2024/01/24 10:04:03;;;;;;;31.80;5.47;;;;;;;;;;5040337;28;20213;-75
2024/01/24 10:06:29;;;;;;;33.47;5.88;;;;;;;;;;5043927;28;20320;-76
2024/01/24 10:08:56;;;;;;;31.25;5.35;;;;;;;;;;5029803;28;20174;-75
2024/01/24 10:11:21;;;;;;;33.67;5.75;;;;;;;;;;5045395;28;20268;-75
2024/01/24 10:13:47;;;;;;;34.08;6.18;;;;;;;;;;5040611;28;20265;-75
2024/01/24 10:16:12;;;;;;;30.35;6.00;;;;;;;;;;5043578;28;20232;-75
2024/01/24 10:18:38;;;;;;;28.20;4.75;;;;;;;;;;5031753;28;20254;-75
2024/01/24 10:21:05;;;;;;;30.55;5.53;;;;;;;;;;5040504;28;20213;-75
2024/01/24 10:23:30;;;;;;;32.10;5.60;;;;;;;;;;5035967;28;20292;-75
2024/01/24 10:25:57;;;;;;;34.30;5.53;;;;;;;;;;5046515;28;20292;-75
2024/01/24 10:28:23;;;;;;;31.38;6.07;;;;;;;;;;5031566;28;20235;-75
2024/01/24 10:30:49;;;;;;;29.75;4.80;;;;;;;;;;5039836;28;20190;-75
2024/01/24 10:33:15;;;;;;;29.00;5.25;;;;;;;;;;5041495;28;20281;-75
2024/01/24 10:35:42;;;;;;;34.35;5.88;;;;;;;;;;5045996;28;20219;-75
2024/01/24 10:38:12;;;;;;;28.73;5.22;;;;;;;;;;5039594;28;20637;-75
2024/01/24 10:40:40;;;;;;;35.17;5.63;;;;;;;;;;5041769;28;20222;-74
2024/01/24 10:43:09;;;;;;;26.83;4.75;;;;;;;;;;5045158;28;20527;-75
2024/01/24 10:45:39;;;;;;;33.80;5.60;;;;;;;;;;5033621;28;20321;-75
2024/01/24 10:48:06;;;;;;;30.58;6.03;;;;;;;;;;5038073;28;20233;-76
2024/01/24 10:50:32;;;;;;;29.45;5.70;;;;;;;;;;5047489;28;20221;-74
2024/01/24 10:52:59;;;;;;;26.05;5.22;;;;;;;;;;5042558;28;20208;-75
2024/01/24 10:55:25;;;;;;;26.08;5.00;;;;;;;;;;5041590;28;20597;-75
2024/01/24 10:57:52;;;;;;;36.58;5.25;;;;;;;;;;5036943;28;20182;-75
2024/01/24 11:00:19;;;;;;;32.30;5.15;;;;;;;;;;5036981;28;20192;-75
2024/01/24 11:02:44;;;;;;;35.55;5.78;;;;;;;;;;5050904;28;20234;-74
2024/01/24 11:05:23;;;;;;;25.83;5.30;;;;;;;;;;5048957;28;20221;-75
2024/01/24 11:08:02;;;;;;;38.90;5.57;;;;;;;;;;5050581;28;20301;-75
2024/01/24 11:10:34;;;;;;;25.20;4.60;;;;;;;;;;5046035;28;20217;-75
2024/01/24 11:13:01;;;;;;;32.03;5.22;;;;;;;;;;5031277;28;20188;-76
2024/01/24 11:15:29;;;;;;;27.27;5.35;;;;;;;;;;5034704;28;20369;-75
2024/01/24 11:18:20;;;;;;;32.05;5.43;;;;;;;;;;5039207;28;20198;-75
2024/01/24 11:20:47;;;;;;;30.33;5.63;;;;;;;;;;5033577;28;20186;-75
2024/01/24 11:23:44;;;;;;;29.55;6.07;;;;;;;;;;5043653;28;20186;-75
2024/01/24 11:26:11;;;;;;;23.90;4.65;;;;;;;;;;5039359;28;20421;-75
2024/01/24 11:28:37;;;;;;;28.63;4.82;;;;;;;;;;5037730;28;20213;-75
2024/01/24 11:31:04;;;;;;;25.63;5.75;;;;;;;;;;5031499;28;20633;-74
2024/01/24 11:33:29;;;;;;;26.77;5.28;;;;;;;;;;5044068;28;20284;-74
2024/01/24 11:35:56;;;;;;;27.27;5.38;;;;;;;;;;5043537;28;20704;-74
2024/01/24 11:38:30;;;;;;;28.88;4.75;;;;;;;;;;5031932;28;20186;-74
2024/01/24 11:41:24;;;;;;;27.80;4.78;;;;;;;;;;5043253;28;20179;-74
2024/01/24 11:43:49;;;;;;;21.98;4.43;;;;;;;;;;5042304;28;20252;-73
2024/01/24 11:46:15;;;;;;;30.13;4.72;;;;;;;;;;5041529;28;20254;-75
2024/01/24 11:48:40;;;;;;;29.15;5.05;;;;;;;;;;5043757;28;20182;-77
2024/01/24 11:51:09;;;;;;;26.30;4.57;;;;;;;;;;5043021;28;20276;-75
2024/01/24 11:53:35;;;;;;;26.38;4.55;;;;;;;;;;5044546;28;20303;-75
2024/01/24 11:56:14;;;;;;;34.15;4.90;;;;;;;;;;5040110;28;20311;-75
2024/01/24 11:58:39;;;;;;;25.95;4.68;;;;;;;;;;5043282;28;20670;-73
2024/01/24 12:01:10;;;;;;;26.40;4.28;;;;;;;;;;5041746;28;20193;-74
2024/01/24 12:03:36;;;;;;;26.67;4.68;;;;;;;;;;5030514;28;20194;-75
2024/01/24 12:06:04;;;;;;;27.92;4.18;;;;;;;;;;5022731;28;20637;-76
2024/01/24 12:08:30;;;;;;;26.90;4.88;;;;;;;;;;5029134;28;20689;-74
2024/01/24 12:10:56;;;;;;;23.23;4.82;;;;;;;;;;5039766;28;20218;-74
2024/01/24 12:13:23;;;;;;;26.83;5.30;;;;;;;;;;5032531;28;20285;-74
2024/01/24 12:15:51;;;;;;;20.85;3.95;;;;;;;;;;5035091;28;20609;-73
2024/01/24 12:18:17;;;;;;;24.50;4.20;;;;;;;;;;5039386;28;20209;-74
2024/01/24 12:20:47;;;;;;;23.42;4.53;;;;;;;;;;5029766;28;20178;-73
2024/01/24 12:23:13;;;;;;;29.00;4.63;;;;;;;;;;5048281;28;20196;-74
2024/01/24 12:25:38;;;;;;;26.70;4.47;;;;;;;;;;5039438;28;20193;-74
2024/01/24 12:28:05;;;;;;;26.80;4.05;;;;;;;;;;5042344;28;20299;-74
2024/01/24 12:30:32;;;;;;;24.08;4.35;;;;;;;;;;5041473;28;20178;-74
2024/01/24 12:32:58;;;;;;;24.50;4.35;;;;;;;;;;5044918;28;20186;-73
2024/01/24 12:35:24;;;;;;;28.42;4.85;;;;;;;;;;5030893;28;20271;-75
2024/01/24 12:37:50;;;;;;;27.75;4.72;;;;;;;;;;5033266;28;20213;-74
2024/01/24 12:40:16;;;;;;;23.25;4.10;;;;;;;;;;5033987;28;20186;-74
2024/01/24 12:42:42;;;;;;;21.92;4.13;;;;;;;;;;5043228;28;20258;-74
2024/01/24 12:45:11;;;;;;;33.58;7.30;;;;;;;;;;5035233;28;20273;-74
2024/01/24 12:47:41;;;;;;;19.95;4.53;;;;;;;;;;5039570;28;20536;-75
2024/01/24 12:50:11;;;;;;;23.88;4.72;;;;;;;;;;5019828;28;20182;-73
2024/01/24 12:52:37;;;;;;;24.77;4.75;;;;;;;;;;5037923;28;20190;-74
2024/01/24 12:55:05;;;;;;;19.13;3.78;;;;;;;;;;5042856;28;20209;-74
2024/01/24 12:57:30;;;;;;;27.80;5.07;;;;;;;;;;5045743;28;20691;-73
2024/01/24 12:59:57;;;;;;;34.03;5.38;;;;;;;;;;5047251;28;20193;-74
2024/01/24 13:02:24;;;;;;;22.58;4.63;;;;;;;;;;5047353;28;20675;-74
2024/01/24 13:04:49;;;;;;;32.13;5.00;;;;;;;;;;5042767;28;20202;-73
2024/01/24 13:07:15;;;;;;;19.70;4.35;;;;;;;;;;5045232;28;20740;-74
2024/01/24 13:09:40;;;;;;;29.27;4.70;;;;;;;;;;5014706;28;20893;-74
2024/01/24 13:12:07;;;;;;;21.65;4.95;;;;;;;;;;5032793;28;20610;-74
2024/01/24 13:14:32;;;;;;;37.35;5.47;;;;;;;;;;5036082;28;20252;-74
2024/01/24 13:17:01;;;;;;;28.15;4.38;;;;;;;;;;5045524;28;20458;-74
2024/01/24 13:19:27;;;;;;;22.77;4.60;;;;;;;;;;5041948;28;20212;-74
2024/01/24 13:21:54;;;;;;;30.73;4.90;;;;;;;;;;5031754;28;20268;-74
2024/01/24 13:24:21;;;;;;;22.92;4.97;;;;;;;;;;5043255;28;20237;-74
2024/01/24 13:26:48;;;;;;;24.02;4.72;;;;;;;;;;5043198;28;20221;-75
2024/01/24 13:29:13;;;;;;;22.50;4.47;;;;;;;;;;5041956;28;20313;-74
2024/01/24 13:31:39;;;;;;;29.27;4.65;;;;;;;;;;5036317;28;20241;-75
2024/01/24 13:34:05;;;;;;;29.00;4.80;;;;;;;;;;5043428;28;20225;-74
2024/01/24 13:36:30;;;;;;;27.02;4.68;;;;;;;;;;5034387;28;21824;-75
2024/01/24 13:38:56;;;;;;;20.52;4.47;;;;;;;;;;5036430;28;20193;-74
2024/01/24 13:41:23;;;;;;;30.42;4.35;;;;;;;;;;5037071;28;20181;-75
2024/01/24 13:43:49;;;;;;;24.50;4.05;;;;;;;;;;5038782;28;20193;-75
2024/01/24 13:46:15;;;;;;;19.35;4.60;;;;;;;;;;5036508;28;20563;-75
2024/01/24 13:48:40;;;;;;;24.63;4.57;;;;;;;;;;5039742;28;20218;-74
2024/01/24 13:51:06;;;;;;;27.02;4.97;;;;;;;;;;5038361;28;20194;-75
2024/01/24 13:53:31;;;;;;;22.45;4.85;;;;;;;;;;5033458;28;20669;-74
2024/01/24 13:55:56;;;;;;;18.48;4.40;;;;;;;;;;5043229;28;20186;-75
2024/01/24 13:58:24;;;;;;;26.83;4.65;;;;;;;;;;5037209;28;20209;-75
2024/01/24 14:00:50;;;;;;;25.98;5.03;;;;;;;;;;5020219;28;20668;-75
2024/01/24 14:03:15;;;;;;;24.30;4.85;;;;;;;;;;5037617;28;20236;-75
2024/01/24 14:05:40;;;;;;;34.20;5.07;;;;;;;;;;5038675;28;20213;-74
2024/01/24 14:08:06;;;;;;;29.40;4.50;;;;;;;;;;5038964;28;20221;-75
2024/01/24 14:10:33;;;;;;;30.70;4.57;;;;;;;;;;5035779;28;20192;-75
2024/01/24 14:12:58;;;;;;;26.77;4.57;;;;;;;;;;5041441;28;20196;-75
2024/01/24 14:15:24;;;;;;;25.15;4.22;;;;;;;;;;5049196;28;20189;-75
2024/01/24 14:17:49;;;;;;;35.28;4.65;;;;;;;;;;5034285;28;20229;-75
2024/01/24 14:20:15;;;;;;;26.95;4.38;;;;;;;;;;5034600;28;20558;-74
2024/01/24 14:22:40;;;;;;;25.70;4.68;;;;;;;;;;5045746;28;20699;-74
2024/01/24 14:25:07;;;;;;;22.85;3.72;;;;;;;;;;5051773;28;20197;-74
2024/01/24 14:27:33;;;;;;;28.15;5.00;;;;;;;;;;5042306;28;20210;-74